Time;durP1;ratioP1;P1;durP2;ratioP2;P2;SDS_P1;SDS_P2;PMS_P1;PMS_P2;Temp;Humidity;BMP_temperature;BMP_pressure;BME280_temperature;BME280_humidity;BME280_pressure;Samples;Min_cycle;Max_cycle;Signal;HPM_P1;HPM_P2
2023/11/11 00:02:03;;;;;;;5.55;1.55;;;11.00;99.90;;;;;;4983056;28;20497;-68
2023/11/11 00:04:29;;;;;;;10.80;1.45;;;11.00;99.90;;;;;;4972031;28;20794;-68
2023/11/11 00:06:57;;;;;;;4.30;1.48;;;11.00;99.90;;;;;;4969061;28;20035;-68
2023/11/11 00:09:22;;;;;;;7.55;1.77;;;11.00;99.90;;;;;;4972934;28;20481;-68
2023/11/11 00:11:48;;;;;;;6.78;1.52;;;11.00;99.90;;;;;;4970429;28;20046;-68
2023/11/11 00:14:15;;;;;;;3.47;1.27;;;11.00;99.90;;;;;;4975329;28;20099;-68
2023/11/11 00:16:40;;;;;;;5.10;0.90;;;11.00;99.90;;;;;;4971957;28;20029;-68
2023/11/11 00:19:11;;;;;;;5.88;1.30;;;11.10;99.90;;;;;;4973195;28;20489;-68
2023/11/11 00:21:39;;;;;;;3.58;1.30;;;11.10;99.90;;;;;;4968261;28;20117;-68
2023/11/11 00:24:07;;;;;;;2.80;1.23;;;11.10;99.90;;;;;;4986642;28;20043;-68
2023/11/11 00:26:33;;;;;;;;;;;11.00;99.90;;;;;;4979226;28;20030;-68
2023/11/11 00:28:58;;;;;;;6.63;1.50;;;11.00;99.90;;;;;;4982923;28;20094;-68
2023/11/11 00:31:24;;;;;;;6.28;1.45;;;11.10;99.90;;;;;;4975956;28;20030;-68
2023/11/11 00:33:51;;;;;;;2.60;1.00;;;11.10;99.90;;;;;;4969987;28;20391;-68
2023/11/11 00:36:21;;;;;;;5.05;1.58;;;11.10;99.90;;;;;;4972080;28;20039;-68
2023/11/11 00:38:49;;;;;;;3.60;1.35;;;11.10;99.90;;;;;;4969513;28;20050;-67
2023/11/11 00:41:17;;;;;;;2.65;1.10;;;11.10;99.90;;;;;;4974838;28;20056;-68
2023/11/11 00:43:45;;;;;;;7.97;1.48;;;11.00;99.90;;;;;;4977003;28;20030;-68
2023/11/11 00:46:13;;;;;;;7.18;1.60;;;11.10;99.90;;;;;;4972181;28;20066;-68
2023/11/11 00:48:41;;;;;;;1.85;1.05;;;11.10;99.90;;;;;;4971602;28;20026;-68
2023/11/11 00:51:08;;;;;;;;;;;11.10;99.90;;;;;;4971480;28;20031;-68
2023/11/11 00:53:34;;;;;;;6.40;1.67;;;11.00;99.90;;;;;;4974008;28;19990;-68
2023/11/11 00:56:00;;;;;;;4.22;1.33;;;11.00;99.90;;;;;;4973771;28;20540;-68
2023/11/11 00:58:26;;;;;;;4.90;1.40;;;11.00;99.90;;;;;;4978191;28;20152;-68
2023/11/11 01:00:51;;;;;;;7.03;1.20;;;11.00;99.90;;;;;;4970577;28;20505;-68
2023/11/11 01:03:17;;;;;;;3.20;1.30;;;11.00;99.90;;;;;;4968650;28;20179;-68
2023/11/11 01:05:42;;;;;;;6.10;1.38;;;11.10;99.90;;;;;;4972886;28;20034;-68
2023/11/11 01:08:09;;;;;;;4.80;1.15;;;11.10;99.90;;;;;;4972457;28;20374;-68
2023/11/11 01:10:37;;;;;;;6.40;1.27;;;11.10;99.90;;;;;;4972608;28;20023;-69
2023/11/11 01:13:06;;;;;;;;;;;11.10;99.90;;;;;;4974120;28;20098;-68
2023/11/11 01:15:34;;;;;;;8.63;1.58;;;11.20;99.90;;;;;;4970918;28;19922;-68
2023/11/11 01:18:02;;;;;;;9.15;1.65;;;11.20;99.90;;;;;;4974981;28;20149;-68
2023/11/11 01:20:28;;;;;;;4.82;1.35;;;11.20;99.90;;;;;;4972693;28;20651;-68
2023/11/11 01:22:54;;;;;;;4.97;1.58;;;11.10;99.90;;;;;;4975365;28;20027;-68
2023/11/11 01:25:22;;;;;;;7.25;1.50;;;11.10;99.90;;;;;;4975705;28;20063;-68
2023/11/11 01:27:48;;;;;;;6.95;1.50;;;11.10;99.90;;;;;;4972445;28;20088;-69
2023/11/11 01:30:13;;;;;;;7.82;1.75;;;11.00;99.90;;;;;;4974730;28;20122;-66
2023/11/11 01:32:39;;;;;;;3.85;1.35;;;11.00;99.90;;;;;;4970956;28;20486;-67
2023/11/11 01:35:07;;;;;;;3.47;1.23;;;11.00;99.90;;;;;;4981716;28;20030;-67
2023/11/11 01:37:34;;;;;;;15.68;1.83;;;11.00;99.90;;;;;;4978882;28;20027;-67
2023/11/11 01:40:03;;;;;;;9.88;1.63;;;11.00;99.90;;;;;;4972729;28;20106;-67
2023/11/11 01:42:28;;;;;;;;;;;11.00;99.90;;;;;;4983988;28;20062;-66
2023/11/11 01:44:55;;;;;;;4.45;1.52;;;11.00;99.90;;;;;;4971670;28;19960;-66
2023/11/11 01:47:21;;;;;;;3.08;1.45;;;10.90;99.90;;;;;;4973367;28;20026;-67
2023/11/11 01:49:47;;;;;;;6.07;1.70;;;11.00;99.90;;;;;;4974054;28;20509;-67
2023/11/11 01:52:13;;;;;;;6.78;1.42;;;10.90;99.90;;;;;;4972386;28;20039;-67
2023/11/11 01:54:39;;;;;;;8.52;1.40;;;11.00;99.90;;;;;;4975582;28;20114;-66
2023/11/11 01:57:06;;;;;;;9.95;1.73;;;11.00;99.90;;;;;;4974294;28;20408;-67
2023/11/11 01:59:33;;;;;;;4.70;1.08;;;11.00;99.90;;;;;;4975416;28;20030;-66
2023/11/11 02:02:00;;;;;;;3.03;1.38;;;11.00;99.90;;;;;;4980264;28;20058;-66
2023/11/11 02:04:27;;;;;;;8.77;1.60;;;11.00;99.90;;;;;;4977407;28;20035;-66
2023/11/11 02:06:53;;;;;;;6.70;1.20;;;11.00;99.90;;;;;;4976456;28;20069;-66
2023/11/11 02:09:22;;;;;;;2.58;1.10;;;11.00;99.90;;;;;;4975833;28;20117;-66
2023/11/11 02:11:49;;;;;;;3.92;1.17;;;10.90;99.90;;;;;;4972630;28;20187;-66
2023/11/11 02:14:18;;;;;;;7.93;2.10;;;10.70;99.90;;;;;;4971377;28;20027;-66
2023/11/11 02:16:44;;;;;;;3.20;1.20;;;10.70;99.90;;;;;;4976372;28;20022;-67
2023/11/11 02:19:09;;;;;;;5.50;1.60;;;10.60;99.90;;;;;;4970048;28;20025;-67
2023/11/11 02:21:35;;;;;;;5.72;1.25;;;10.70;99.90;;;;;;4971432;28;20041;-66
2023/11/11 02:24:03;;;;;;;4.65;1.55;;;10.70;99.90;;;;;;4977124;28;20043;-66
2023/11/11 02:26:28;;;;;;;8.75;1.33;;;10.70;99.90;;;;;;4975254;28;20026;-66
2023/11/11 02:28:56;;;;;;;4.28;1.20;;;10.70;99.90;;;;;;4974047;28;20037;-66
2023/11/11 02:31:22;;;;;;;5.28;1.10;;;10.70;99.90;;;;;;4975406;28;20034;-66
2023/11/11 02:33:48;;;;;;;7.57;1.25;;;10.60;99.90;;;;;;4977018;28;20027;-66
2023/11/11 02:36:14;;;;;;;10.38;1.52;;;10.70;99.90;;;;;;4973638;28;20389;-66
2023/11/11 02:38:42;;;;;;;6.88;1.35;;;10.70;99.90;;;;;;4978242;28;20027;-66
2023/11/11 02:41:07;;;;;;;6.60;1.00;;;10.80;99.90;;;;;;4979593;28;20030;-66
2023/11/11 02:43:33;;;;;;;4.03;1.38;;;10.80;99.90;;;;;;4977287;28;20129;-66
2023/11/11 02:46:01;;;;;;;6.10;1.30;;;10.80;99.90;;;;;;4973075;28;20034;-66
2023/11/11 02:48:26;;;;;;;8.18;1.48;;;10.80;99.90;;;;;;4978788;28;20026;-66
2023/11/11 02:50:54;;;;;;;3.63;1.13;;;10.90;99.90;;;;;;4973857;28;20571;-66
2023/11/11 02:53:19;;;;;;;4.82;1.35;;;10.90;99.90;;;;;;4975902;28;20034;-66
2023/11/11 02:55:45;;;;;;;5.25;1.52;;;10.80;99.90;;;;;;4977515;28;20108;-66
2023/11/11 02:58:11;;;;;;;3.58;1.13;;;10.70;99.90;;;;;;4978373;28;20034;-67
2023/11/11 03:00:39;;;;;;;6.07;1.30;;;10.80;99.90;;;;;;4972466;28;20045;-66
2023/11/11 03:03:07;;;;;;;6.72;1.23;;;10.80;99.90;;;;;;4977322;28;20500;-66
2023/11/11 03:05:35;;;;;;;9.13;1.30;;;10.80;99.90;;;;;;4975309;28;20105;-67
2023/11/11 03:08:01;;;;;;;10.18;2.13;;;10.80;99.90;;;;;;4972798;28;20049;-66
2023/11/11 03:10:27;;;;;;;4.60;1.52;;;10.80;99.90;;;;;;4967801;28;20075;-66
2023/11/11 03:12:53;;;;;;;4.25;1.08;;;10.90;99.90;;;;;;4970533;28;20066;-67
2023/11/11 03:15:22;;;;;;;7.28;1.15;;;10.80;99.90;;;;;;4970684;28;20086;-67
2023/11/11 03:17:49;;;;;;;12.25;1.38;;;10.70;99.90;;;;;;4967824;28;20102;-66
2023/11/11 03:20:17;;;;;;;8.40;1.88;;;10.70;99.90;;;;;;4972129;28;20104;-67
2023/11/11 03:22:43;;;;;;;4.35;1.48;;;10.60;99.90;;;;;;4978968;28;20030;-66
2023/11/11 03:25:10;;;;;;;4.80;1.20;;;10.60;99.90;;;;;;4971432;28;20038;-66
2023/11/11 03:27:35;;;;;;;4.10;1.35;;;10.60;99.90;;;;;;4976457;28;20022;-66
2023/11/11 03:30:02;;;;;;;7.47;1.55;;;10.60;99.90;;;;;;4968938;28;20404;-66
2023/11/11 03:32:28;;;;;;;5.18;1.20;;;10.50;99.90;;;;;;4970555;28;20031;-66
2023/11/11 03:34:54;;;;;;;4.53;1.55;;;10.50;99.90;;;;;;4970838;28;20581;-66
2023/11/11 03:37:20;;;;;;;5.43;1.40;;;10.50;99.90;;;;;;4967398;28;20045;-66
2023/11/11 03:39:45;;;;;;;6.70;1.55;;;10.70;99.90;;;;;;4975106;28;20097;-67
2023/11/11 03:42:16;;;;;;;4.78;0.95;;;10.80;99.90;;;;;;4969481;28;20065;-66
2023/11/11 03:44:41;;;;;;;6.55;1.67;;;10.80;99.90;;;;;;4972382;28;20030;-66
2023/11/11 03:47:07;;;;;;;4.10;1.27;;;10.70;99.90;;;;;;4975664;28;20027;-66
2023/11/11 03:49:33;;;;;;;3.35;1.20;;;10.60;99.90;;;;;;4968313;28;20042;-66
2023/11/11 03:51:59;;;;;;;8.60;1.35;;;10.60;99.90;;;;;;4968842;28;20400;-66
2023/11/11 03:54:25;;;;;;;4.55;1.63;;;10.60;99.90;;;;;;4973886;28;20114;-66
2023/11/11 03:56:51;;;;;;;7.00;1.92;;;10.70;99.90;;;;;;4969298;28;20031;-66
2023/11/11 03:59:17;;;;;;;3.10;1.30;;;10.70;99.90;;;;;;4973302;28;20027;-67
2023/11/11 04:01:44;;;;;;;8.63;1.85;;;10.60;99.90;;;;;;4983583;28;20031;-67
2023/11/11 04:04:11;;;;;;;5.90;1.73;;;10.50;99.90;;;;;;4973952;28;20150;-67
2023/11/11 04:06:41;;;;;;;6.95;1.38;;;10.60;99.90;;;;;;4977162;28;20030;-66
2023/11/11 04:09:06;;;;;;;6.18;1.58;;;10.50;99.90;;;;;;4976546;28;20030;-66
2023/11/11 04:11:35;;;;;;;3.78;1.50;;;10.60;99.90;;;;;;4975709;28;20085;-66
2023/11/11 04:14:02;;;;;;;;;;;10.50;99.90;;;;;;4974084;28;20031;-66
2023/11/11 04:16:29;;;;;;;4.82;1.77;;;10.50;99.90;;;;;;4973599;28;19953;-66
2023/11/11 04:18:59;;;;;;;3.20;1.40;;;10.50;99.90;;;;;;4971712;28;20066;-67
2023/11/11 04:21:27;;;;;;;9.65;1.60;;;10.50;99.90;;;;;;4973488;28;20037;-66
2023/11/11 04:23:53;;;;;;;4.40;1.48;;;10.50;99.90;;;;;;4975691;28;20039;-67
2023/11/11 04:26:21;;;;;;;7.75;1.50;;;10.60;99.90;;;;;;4973815;28;20058;-66
2023/11/11 04:28:49;;;;;;;;;;;10.70;99.90;;;;;;4976738;28;20041;-67
2023/11/11 04:31:17;;;;;;;3.92;1.20;;;10.60;99.90;;;;;;4971285;28;20394;-66
2023/11/11 04:33:43;;;;;;;5.45;1.30;;;10.60;99.90;;;;;;4974919;28;20169;-66
2023/11/11 04:36:09;;;;;;;4.93;1.15;;;10.60;99.90;;;;;;4976689;28;20509;-67
2023/11/11 04:38:37;;;;;;;5.45;1.15;;;10.50;99.90;;;;;;4977742;28;20034;-67
2023/11/11 04:41:04;;;;;;;5.10;1.02;;;10.50;99.90;;;;;;4979763;28;20489;-66
2023/11/11 04:43:32;;;;;;;4.40;1.35;;;10.40;99.90;;;;;;4976668;28;20117;-66
2023/11/11 04:45:58;;;;;;;7.65;1.80;;;10.30;99.90;;;;;;4974208;28;20043;-66
2023/11/11 04:48:24;;;;;;;1.65;0.80;;;10.30;99.90;;;;;;4977952;28;20055;-67
2023/11/11 04:50:50;;;;;;;2.85;1.10;;;10.20;99.90;;;;;;4972468;28;20046;-66
2023/11/11 04:53:16;;;;;;;4.75;1.40;;;10.10;99.90;;;;;;4979747;28;20053;-66
2023/11/11 04:55:41;;;;;;;3.22;0.90;;;9.90;99.90;;;;;;4978390;28;20062;-67
2023/11/11 04:58:09;;;;;;;0.95;0.77;;;9.70;99.90;;;;;;4974221;28;20022;-66
2023/11/11 05:00:38;;;;;;;;;;;9.50;99.90;;;;;;4975639;28;20031;-66
2023/11/11 05:03:04;;;;;;;1.45;0.80;;;9.30;99.90;;;;;;4971187;28;19906;-67
2023/11/11 05:05:30;;;;;;;4.75;1.23;;;9.20;99.90;;;;;;4971525;28;20038;-66
2023/11/11 05:07:55;;;;;;;2.40;1.25;;;9.10;99.90;;;;;;4973095;28;21086;-67
2023/11/11 05:10:22;;;;;;;2.47;1.08;;;9.10;99.90;;;;;;4974888;28;20031;-67
2023/11/11 05:12:53;;;;;;;2.95;1.23;;;9.10;99.90;;;;;;4975291;28;20524;-66
2023/11/11 05:15:23;;;;;;;1.80;1.33;;;9.20;99.90;;;;;;4979744;28;20039;-66
2023/11/11 05:17:49;;;;;;;2.40;0.90;;;9.20;99.90;;;;;;4971581;28;20030;-67
2023/11/11 05:20:17;;;;;;;3.85;1.08;;;9.20;99.90;;;;;;4972066;28;20035;-66
2023/11/11 05:22:43;;;;;;;4.80;0.85;;;9.20;99.90;;;;;;4974840;28;20381;-66
2023/11/11 05:25:11;;;;;;;1.48;0.90;;;9.20;99.90;;;;;;4973486;28;20043;-66
2023/11/11 05:27:37;;;;;;;2.70;1.05;;;9.00;99.90;;;;;;4979011;28;20110;-66
2023/11/11 05:30:06;;;;;;;1.30;1.05;;;9.20;99.90;;;;;;4976195;28;20106;-66
2023/11/11 05:32:32;;;;;;;3.22;1.02;;;9.20;99.90;;;;;;4970610;28;20433;-66
2023/11/11 05:35:03;;;;;;;2.50;1.10;;;9.20;99.90;;;;;;4974934;28;20035;-66
2023/11/11 05:37:29;;;;;;;2.38;1.40;;;9.30;99.90;;;;;;4970919;28;20022;-66
2023/11/11 05:39:55;;;;;;;1.20;0.98;;;9.40;99.90;;;;;;4972045;28;20085;-66
2023/11/11 05:42:21;;;;;;;2.75;1.30;;;9.50;99.90;;;;;;4976651;28;20362;-67
2023/11/11 05:44:46;;;;;;;1.65;0.98;;;9.50;99.90;;;;;;4976710;28;22301;-67
2023/11/11 05:47:14;;;;;;;0.82;0.70;;;9.40;99.90;;;;;;4971316;28;20038;-66
2023/11/11 05:49:40;;;;;;;0.55;0.43;;;9.40;99.90;;;;;;4975105;28;20039;-66
2023/11/11 05:52:08;;;;;;;1.90;0.85;;;9.50;99.90;;;;;;4970608;28;20039;-66
2023/11/11 05:54:34;;;;;;;2.60;1.83;;;9.60;99.90;;;;;;4977075;28;20496;-66
2023/11/11 05:56:59;;;;;;;2.65;1.15;;;9.60;99.90;;;;;;4972320;28;20033;-66
2023/11/11 05:59:26;;;;;;;0.77;0.70;;;9.60;99.90;;;;;;4974439;28;20023;-66
2023/11/11 06:01:51;;;;;;;3.55;0.82;;;9.70;99.90;;;;;;4970189;28;20555;-66
2023/11/11 06:04:19;;;;;;;1.50;0.60;;;9.60;99.90;;;;;;4972914;28;20066;-66
2023/11/11 06:06:48;;;;;;;;;;;9.70;99.90;;;;;;4974876;28;20030;-66
2023/11/11 06:09:15;;;;;;;3.03;1.70;;;9.60;99.90;;;;;;4974865;28;19925;-67
2023/11/11 06:11:45;;;;;;;2.83;0.80;;;9.70;99.90;;;;;;4971296;28;20030;-66
2023/11/11 06:14:11;;;;;;;0.52;0.52;;;9.70;99.90;;;;;;4972387;28;20038;-66
2023/11/11 06:16:38;;;;;;;2.20;0.70;;;9.70;99.90;;;;;;4970601;28;20030;-66
2023/11/11 06:19:03;;;;;;;1.50;0.40;;;9.70;99.90;;;;;;4973298;28;20031;-66
2023/11/11 06:21:29;;;;;;;0.73;0.60;;;9.70;99.90;;;;;;4970660;28;20022;-66
2023/11/11 06:23:57;;;;;;;1.75;0.70;;;9.70;99.90;;;;;;4966736;28;20105;-66
2023/11/11 06:26:22;;;;;;;1.67;1.10;;;9.70;99.90;;;;;;4968377;28;20773;-66
2023/11/11 06:28:52;;;;;;;2.80;1.80;;;9.80;99.90;;;;;;4971344;28;20062;-66
2023/11/11 06:31:18;;;;;;;2.88;1.13;;;9.70;99.90;;;;;;4970927;28;20023;-67
2023/11/11 06:33:44;;;;;;;1.25;0.82;;;9.70;99.90;;;;;;4967299;28;20022;-67
2023/11/11 06:36:10;;;;;;;0.85;0.68;;;9.70;99.90;;;;;;4970000;28;20129;-66
2023/11/11 06:38:36;;;;;;;2.25;1.05;;;9.70;99.90;;;;;;4971386;28;20023;-66
2023/11/11 06:41:02;;;;;;;0.90;0.75;;;9.70;99.90;;;;;;4970092;28;20042;-66
2023/11/11 06:43:28;;;;;;;1.70;1.00;;;9.70;99.90;;;;;;4975054;28;20093;-67
2023/11/11 06:45:53;;;;;;;2.17;1.50;;;9.70;99.90;;;;;;4968998;28;20085;-66
2023/11/11 06:48:19;;;;;;;5.28;2.17;;;9.70;99.90;;;;;;4971968;28;20082;-67
2023/11/11 06:50:47;;;;;;;7.07;2.47;;;9.70;99.90;;;;;;4968163;28;20133;-66
2023/11/11 06:53:13;;;;;;;4.25;1.90;;;9.60;99.90;;;;;;4970919;28;20033;-66
2023/11/11 06:55:41;;;;;;;7.05;2.63;;;9.60;99.90;;;;;;4974462;28;20027;-66
2023/11/11 06:58:06;;;;;;;;;;;9.60;99.90;;;;;;4978037;28;20113;-66
2023/11/11 07:00:32;;;;;;;5.35;2.83;;;9.50;99.90;;;;;;4963167;28;20285;-66
2023/11/11 07:02:58;;;;;;;5.35;2.83;;;9.60;99.90;;;;;;4974094;28;20073;-66
2023/11/11 07:05:25;;;;;;;5.35;3.13;;;9.60;99.90;;;;;;4973051;28;20069;-66
2023/11/11 07:07:50;;;;;;;6.20;3.35;;;9.70;99.90;;;;;;4971950;28;20038;-66
2023/11/11 07:10:16;;;;;;;7.22;3.53;;;9.70;99.90;;;;;;4972149;28;20494;-66
2023/11/11 07:12:44;;;;;;;6.90;3.58;;;9.70;99.90;;;;;;4973100;28;20417;-67
2023/11/11 07:15:10;;;;;;;;;;;9.70;99.90;;;;;;4970370;28;20058;-67
2023/11/11 07:17:41;;;;;;;7.82;4.72;;;9.70;99.90;;;;;;4972846;28;19965;-67
2023/11/11 07:20:12;;;;;;;10.68;5.18;;;9.50;99.90;;;;;;4966502;28;20031;-66
2023/11/11 07:22:40;;;;;;;10.23;5.88;;;9.40;99.90;;;;;;4974096;28;20680;-66
2023/11/11 07:25:11;;;;;;;10.40;6.03;;;9.20;99.90;;;;;;4968710;28;20096;-67
2023/11/11 07:27:37;;;;;;;11.10;6.68;;;9.40;99.90;;;;;;4966317;28;20035;-67
2023/11/11 07:30:05;;;;;;;12.35;6.20;;;9.30;99.90;;;;;;4985774;28;20204;-66
2023/11/11 07:32:34;;;;;;;9.70;5.65;;;9.50;99.90;;;;;;4973826;28;20026;-66
2023/11/11 07:35:02;;;;;;;12.75;7.15;;;9.50;99.90;;;;;;4973643;28;20458;-67
2023/11/11 07:37:28;;;;;;;;;;;9.40;99.90;;;;;;4982653;28;20097;-67
2023/11/11 07:39:55;;;;;;;11.32;6.80;;;9.40;99.90;;;;;;4973388;28;19910;-66
2023/11/11 07:42:23;;;;;;;12.50;7.47;;;9.30;99.90;;;;;;4974062;28;20445;-66
2023/11/11 07:44:53;;;;;;;12.98;7.50;;;9.30;99.90;;;;;;4978080;28;20026;-66
2023/11/11 07:47:21;;;;;;;12.43;7.32;;;9.40;99.90;;;;;;4974261;28;20078;-66
2023/11/11 07:49:47;;;;;;;17.10;8.13;;;9.30;99.90;;;;;;4975416;28;20030;-67
2023/11/11 07:52:13;;;;;;;15.00;7.25;;;9.20;99.90;;;;;;4991208;28;20026;-66
2023/11/11 07:54:39;;;;;;;14.68;8.13;;;9.20;99.90;;;;;;4981006;28;20069;-67
2023/11/11 07:57:07;;;;;;;20.30;7.22;;;9.10;99.90;;;;;;4976731;28;20432;-66
2023/11/11 07:59:43;;;;;;;13.10;6.68;;;9.20;99.90;;;;;;4987717;28;20041;-66
2023/11/11 08:02:15;;;;;;;11.85;6.90;;;9.00;99.90;;;;;;4976479;28;20054;-66
2023/11/11 08:04:41;;;;;;;12.60;6.20;;;9.10;99.90;;;;;;4972745;28;20030;-66
2023/11/11 08:07:10;;;;;;;16.42;7.07;;;8.90;99.90;;;;;;4972596;28;20066;-66
2023/11/11 08:09:36;;;;;;;13.95;6.50;;;9.00;99.90;;;;;;4975010;28;20121;-67
2023/11/11 08:12:09;;;;;;;17.05;6.60;;;9.10;99.90;;;;;;4970930;28;20118;-67
2023/11/11 08:14:34;;;;;;;9.75;5.75;;;9.10;99.90;;;;;;4971752;28;20117;-66
2023/11/11 08:17:00;;;;;;;14.10;5.35;;;9.00;99.90;;;;;;4970078;28;20121;-66
2023/11/11 08:19:27;;;;;;;11.13;5.72;;;9.00;99.90;;;;;;4971588;28;20030;-66
2023/11/11 08:21:53;;;;;;;8.90;5.17;;;9.00;99.90;;;;;;4975933;28;20027;-66
2023/11/11 08:24:21;;;;;;;9.38;5.85;;;9.10;99.90;;;;;;4969687;28;20014;-66
2023/11/11 08:26:48;;;;;;;10.18;4.97;;;9.10;99.90;;;;;;4977693;28;20384;-67
2023/11/11 08:29:14;;;;;;;12.77;5.70;;;9.20;99.90;;;;;;4975115;28;20030;-67
2023/11/11 08:31:40;;;;;;;12.20;5.32;;;9.10;99.90;;;;;;4978330;28;20042;-67
2023/11/11 08:34:06;;;;;;;7.50;4.10;;;9.10;99.90;;;;;;4973409;28;20077;-67
2023/11/11 08:36:35;;;;;;;12.25;4.40;;;9.10;99.90;;;;;;4978003;28;20035;-66
2023/11/11 08:39:00;;;;;;;6.13;3.45;;;9.10;99.90;;;;;;4975813;28;20027;-66
2023/11/11 08:41:30;;;;;;;7.93;3.53;;;9.10;99.90;;;;;;4975846;28;20480;-66
2023/11/11 08:43:56;;;;;;;7.88;3.97;;;9.10;99.90;;;;;;4977955;28;20042;-67
2023/11/11 08:46:27;;;;;;;9.10;3.58;;;9.10;99.90;;;;;;4971217;28;20034;-66
2023/11/11 08:48:55;;;;;;;5.93;3.03;;;9.10;99.90;;;;;;4974108;28;20421;-66
2023/11/11 08:51:20;;;;;;;;;;;9.10;99.90;;;;;;4975505;28;20031;-66
2023/11/11 08:53:47;;;;;;;4.78;2.20;;;9.00;99.90;;;;;;4971663;28;20331;-67
2023/11/11 08:56:15;;;;;;;6.78;2.40;;;9.00;99.90;;;;;;4975290;28;20481;-66
2023/11/11 08:58:43;;;;;;;7.35;3.30;;;9.00;99.90;;;;;;4974145;28;20386;-66
2023/11/11 09:01:09;;;;;;;;;;;9.00;99.90;;;;;;4975003;28;20568;-66
2023/11/11 09:03:37;;;;;;;4.10;2.00;;;9.10;99.90;;;;;;4973341;28;20000;-67
2023/11/11 09:06:02;;;;;;;;;;;9.10;99.90;;;;;;4974608;28;20049;-66
2023/11/11 09:08:33;;;;;;;4.80;2.22;;;9.10;99.90;;;;;;4970494;28;19914;-66
2023/11/11 09:10:58;;;;;;;4.95;2.10;;;9.10;99.90;;;;;;4971086;28;20026;-66
2023/11/11 09:13:26;;;;;;;3.83;1.65;;;9.00;99.90;;;;;;4972423;28;20042;-66
2023/11/11 09:15:55;;;;;;;4.28;2.10;;;9.00;99.90;;;;;;4970327;28;20042;-66
2023/11/11 09:18:22;;;;;;;;;;;9.00;99.90;;;;;;4968749;28;20110;-66
2023/11/11 09:20:48;;;;;;;4.85;1.67;;;9.10;99.90;;;;;;4970586;28;19964;-66
2023/11/11 09:23:13;;;;;;;7.03;2.15;;;9.10;99.90;;;;;;4973655;28;20070;-61
2023/11/11 09:25:39;;;;;;;2.15;1.58;;;9.10;99.90;;;;;;4974051;28;20097;-66
2023/11/11 09:28:08;;;;;;;3.88;1.80;;;9.10;99.90;;;;;;4968138;28;20031;-66
2023/11/11 09:30:34;;;;;;;2.70;1.15;;;9.00;99.90;;;;;;5010838;23;20039;-69
2023/11/11 09:33:02;;;;;;;3.63;1.90;;;9.10;99.90;;;;;;4990392;28;20140;-68
2023/11/11 09:35:27;;;;;;;;;;;9.10;99.90;;;;;;4988638;28;20500;-68
2023/11/11 09:37:53;;;;;;;3.20;1.67;;;9.00;99.90;;;;;;4988328;28;19978;-68
2023/11/11 09:40:19;;;;;;;3.33;1.88;;;9.00;99.90;;;;;;4994925;28;20026;-68
2023/11/11 09:42:44;;;;;;;5.70;2.05;;;9.00;99.90;;;;;;4990240;28;20034;-68
2023/11/11 09:45:13;;;;;;;3.83;1.90;;;9.00;99.90;;;;;;4991273;28;20030;-69
2023/11/11 09:47:41;;;;;;;3.30;1.88;;;9.00;99.90;;;;;;4989956;28;20384;-68
2023/11/11 09:50:11;;;;;;;7.03;1.80;;;9.10;99.90;;;;;;4985634;28;20026;-68
2023/11/11 09:52:38;;;;;;;3.58;2.03;;;9.00;99.90;;;;;;4990772;28;20026;-68
2023/11/11 09:55:10;;;;;;;8.10;2.20;;;9.00;99.90;;;;;;4990201;28;20027;-70
2023/11/11 09:57:37;;;;;;;5.45;2.17;;;9.00;99.90;;;;;;4986571;28;20503;-70
2023/11/11 10:00:05;;;;;;;6.18;2.08;;;9.10;99.90;;;;;;4986997;28;20034;-70
2023/11/11 10:02:31;;;;;;;;;;;9.20;99.90;;;;;;4988272;28;20030;-69
2023/11/11 10:04:57;;;;;;;10.65;1.80;;;9.20;99.90;;;;;;4991729;28;19913;-69
2023/11/11 10:07:22;;;;;;;5.97;1.83;;;9.20;99.90;;;;;;4989932;28;20030;-70
2023/11/11 10:09:50;;;;;;;6.18;1.60;;;9.20;99.90;;;;;;4989723;28;20037;-69
2023/11/11 10:12:16;;;;;;;4.25;1.58;;;9.20;99.90;;;;;;4988798;28;20022;-70
2023/11/11 10:14:41;;;;;;;4.03;1.83;;;9.20;99.90;;;;;;4990730;28;20410;-70
2023/11/11 10:17:13;;;;;;;6.45;1.90;;;9.20;99.90;;;;;;4988520;28;20041;-70
2023/11/11 10:19:42;;;;;;;6.50;2.33;;;9.10;99.90;;;;;;4988296;28;20469;-70
2023/11/11 10:22:08;;;;;;;8.98;2.25;;;9.20;99.90;;;;;;4990705;28;20121;-70
2023/11/11 10:24:35;;;;;;;6.00;1.85;;;9.20;99.90;;;;;;4989461;28;20513;-70
2023/11/11 10:27:03;;;;;;;7.35;2.30;;;9.10;99.90;;;;;;4985397;28;20117;-70
2023/11/11 10:29:35;;;;;;;3.85;2.15;;;9.10;99.90;;;;;;4983948;28;20023;-70
2023/11/11 10:32:07;;;;;;;5.15;2.05;;;9.10;99.90;;;;;;4991262;28;20038;-70
2023/11/11 10:34:33;;;;;;;3.63;1.80;;;9.20;99.90;;;;;;4982746;28;20109;-70
2023/11/11 10:36:58;;;;;;;2.83;1.80;;;9.30;99.90;;;;;;4989287;28;20113;-70
2023/11/11 10:39:24;;;;;;;5.07;2.13;;;9.30;99.90;;;;;;4984264;28;20125;-70
2023/11/11 10:41:50;;;;;;;2.58;1.67;;;9.50;99.90;;;;;;4990186;28;20023;-70
2023/11/11 10:44:19;;;;;;;3.60;1.90;;;9.50;99.90;;;;;;4989953;28;20065;-70
2023/11/11 10:52:30;;;;;;;7.50;1.65;;;9.40;99.90;;;;;;4947986;22;20058;-65
2023/11/11 10:54:58;;;;;;;3.78;2.35;;;9.40;99.90;;;;;;5004629;28;20045;-65
2023/11/11 10:57:27;;;;;;;9.35;2.42;;;9.50;99.90;;;;;;5015510;28;20025;-65
2023/11/11 10:59:55;;;;;;;4.60;1.80;;;9.40;99.90;;;;;;5029805;28;20092;-65
2023/11/11 11:02:23;;;;;;;3.45;1.77;;;9.40;99.90;;;;;;5032696;28;20533;-65
2023/11/11 11:04:55;;;;;;;3.60;2.08;;;9.40;99.90;;;;;;5026281;28;20025;-65
2023/11/11 11:07:29;;;;;;;6.82;3.05;;;9.30;99.90;;;;;;5031027;28;20033;-65
2023/11/11 11:10:11;;;;;;;3.67;1.90;;;9.20;99.90;;;;;;5027349;28;20025;-66
2023/11/11 11:12:43;;;;;;;3.05;2.03;;;9.30;99.90;;;;;;5031540;28;20025;-65
2023/11/11 11:15:14;;;;;;;4.05;1.90;;;9.30;99.90;;;;;;5030577;28;20033;-65
2023/11/11 11:17:44;;;;;;;2.17;1.63;;;9.30;99.90;;;;;;5027462;28;20032;-66
2023/11/11 11:20:20;;;;;;;5.68;1.88;;;9.30;99.90;;;;;;5027832;28;20466;-66
2023/11/11 11:22:48;;;;;;;6.05;1.70;;;9.30;99.90;;;;;;5024975;28;20018;-66
2023/11/11 11:25:33;;;;;;;4.93;2.00;;;9.20;99.90;;;;;;5024421;28;20029;-66
2023/11/11 11:28:11;;;;;;;6.25;1.80;;;9.20;99.90;;;;;;5025615;28;20030;-66
2023/11/11 11:30:58;;;;;;;3.17;1.65;;;9.30;99.90;;;;;;5024027;28;20078;-66
2023/11/11 11:33:33;;;;;;;7.53;2.20;;;9.20;99.90;;;;;;5028733;28;20494;-62
2023/11/11 11:36:06;;;;;;;5.90;1.98;;;9.30;99.90;;;;;;5032214;28;20116;-66
2023/11/11 11:38:37;;;;;;;7.15;2.13;;;9.40;99.90;;;;;;5003906;28;20079;-66
2023/11/11 11:41:12;;;;;;;2.58;1.65;;;9.50;99.90;;;;;;5031049;28;20641;-66
2023/11/11 11:43:39;;;;;;;4.50;1.90;;;9.40;99.90;;;;;;5032520;28;20013;-65
2023/11/11 11:46:07;;;;;;;3.15;1.60;;;9.30;99.90;;;;;;5028227;28;20033;-65
2023/11/11 11:48:36;;;;;;;5.93;1.50;;;9.40;99.90;;;;;;5009806;28;20483;-65
2023/11/11 11:51:09;;;;;;;4.45;1.25;;;9.40;99.90;;;;;;5027021;28;20642;-66
2023/11/11 11:53:38;;;;;;;3.53;1.27;;;9.50;99.90;;;;;;5024744;28;20029;-69
2023/11/11 11:56:10;;;;;;;2.55;1.48;;;9.50;99.90;;;;;;4988255;28;20045;-65
2023/11/11 11:58:50;;;;;;;4.25;1.45;;;9.40;99.90;;;;;;4967818;28;20038;-65
2023/11/11 12:01:30;;;;;;;2.75;1.40;;;9.60;99.90;;;;;;4976060;28;20026;-65
2023/11/11 12:03:57;;;;;;;3.90;1.10;;;9.50;99.90;;;;;;4966752;28;20030;-65
2023/11/11 12:06:29;;;;;;;2.83;1.30;;;9.60;99.90;;;;;;4973807;28;20134;-65
2023/11/11 12:08:59;;;;;;;7.30;1.20;;;9.50;99.90;;;;;;4972294;28;20484;-65
2023/11/11 12:11:31;;;;;;;2.50;1.20;;;9.60;99.90;;;;;;4969532;28;20030;-65
2023/11/11 12:14:05;;;;;;;6.38;1.27;;;9.50;99.90;;;;;;4967248;28;20038;-65
2023/11/11 12:16:44;;;;;;;2.55;0.93;;;9.40;99.90;;;;;;4971121;28;20481;-65
2023/11/11 12:19:17;;;;;;;2.35;1.00;;;9.30;99.90;;;;;;4968373;28;20066;-65
2023/11/11 12:21:45;;;;;;;2.88;1.10;;;9.40;99.90;;;;;;4968131;28;20027;-65
2023/11/11 12:24:15;;;;;;;7.07;1.00;;;9.50;99.90;;;;;;4977717;28;20485;-65
2023/11/11 12:26:43;;;;;;;2.85;1.00;;;9.50;99.90;;;;;;4970924;28;20133;-65
2023/11/11 12:29:13;;;;;;;3.17;1.00;;;9.60;99.90;;;;;;4975815;28;20033;-65
2023/11/11 12:31:47;;;;;;;5.80;1.40;;;9.60;99.90;;;;;;4979798;28;20113;-65
2023/11/11 12:34:16;;;;;;;2.63;0.90;;;9.50;99.90;;;;;;4976108;28;20026;-65
2023/11/11 12:36:41;;;;;;;3.28;1.10;;;9.60;99.90;;;;;;4971686;28;20130;-65
2023/11/11 12:39:13;;;;;;;4.15;1.15;;;9.40;99.90;;;;;;4971029;28;20448;-65
2023/11/11 12:41:39;;;;;;;5.50;1.25;;;9.40;99.90;;;;;;4974559;28;20027;-66
2023/11/11 12:44:07;;;;;;;2.60;1.35;;;9.50;99.90;;;;;;4972701;28;20046;-65
2023/11/11 12:46:41;;;;;;;3.28;1.23;;;9.50;99.90;;;;;;4969828;28;20029;-65
2023/11/11 12:49:11;;;;;;;5.68;1.52;;;9.60;99.90;;;;;;4973269;28;20059;-66
2023/11/11 12:51:41;;;;;;;3.03;0.93;;;9.40;99.90;;;;;;4971222;28;20046;-65
2023/11/11 12:54:06;;;;;;;3.88;0.63;;;9.40;99.90;;;;;;4973365;28;20105;-66
2023/11/11 12:56:36;;;;;;;1.83;0.63;;;9.10;99.90;;;;;;4992445;28;20484;-65
2023/11/11 12:59:10;;;;;;;1.05;0.45;;;9.10;99.90;;;;;;4993255;28;20030;-65
2023/11/11 13:01:38;;;;;;;0.70;0.30;;;9.20;99.90;;;;;;4993866;28;20058;-66
2023/11/11 13:04:07;;;;;;;0.38;0.30;;;9.10;99.90;;;;;;4988256;28;20101;-65